sensor_id;sensor_type;location;lat;lon;timestamp;P1;durP1;ratioP1;P2;durP2;ratioP2
16593;SDS011;8410;52.532;13.336;2024-03-06T00:00:39;27.30;;;22.70;;
16593;SDS011;8410;52.532;13.336;2024-03-06T00:03:08;28.78;;;21.28;;
16593;SDS011;8410;52.532;13.336;2024-03-06T00:05:35;23.10;;;20.63;;
16593;SDS011;8410;52.532;13.336;2024-03-06T00:08:03;27.60;;;24.57;;
16593;SDS011;8410;52.532;13.336;2024-03-06T00:10:31;25.77;;;21.30;;
16593;SDS011;8410;52.532;13.336;2024-03-06T00:12:59;27.13;;;21.07;;
16593;SDS011;8410;52.532;13.336;2024-03-06T00:15:27;28.47;;;20.27;;
16593;SDS011;8410;52.532;13.336;2024-03-06T00:17:54;24.90;;;21.43;;
16593;SDS011;8410;52.532;13.336;2024-03-06T00:20:23;26.70;;;21.30;;
16593;SDS011;8410;52.532;13.336;2024-03-06T00:22:51;25.37;;;20.27;;
16593;SDS011;8410;52.532;13.336;2024-03-06T00:25:18;26.93;;;21.57;;
16593;SDS011;8410;52.532;13.336;2024-03-06T00:27:46;26.53;;;22.00;;
16593;SDS011;8410;52.532;13.336;2024-03-06T00:30:13;25.20;;;22.03;;
16593;SDS011;8410;52.532;13.336;2024-03-06T00:32:41;25.93;;;21.37;;
16593;SDS011;8410;52.532;13.336;2024-03-06T00:35:08;24.83;;;21.10;;
16593;SDS011;8410;52.532;13.336;2024-03-06T00:37:39;26.23;;;22.33;;
16593;SDS011;8410;52.532;13.336;2024-03-06T00:40:07;25.17;;;20.87;;
16593;SDS011;8410;52.532;13.336;2024-03-06T00:42:36;24.73;;;20.83;;
16593;SDS011;8410;52.532;13.336;2024-03-06T00:45:06;25.33;;;20.80;;
16593;SDS011;8410;52.532;13.336;2024-03-06T00:47:35;27.73;;;22.67;;
16593;SDS011;8410;52.532;13.336;2024-03-06T00:50:02;24.90;;;21.97;;
16593;SDS011;8410;52.532;13.336;2024-03-06T00:52:31;33.07;;;23.67;;
16593;SDS011;8410;52.532;13.336;2024-03-06T00:55:01;26.47;;;22.70;;
16593;SDS011;8410;52.532;13.336;2024-03-06T00:57:28;32.03;;;23.83;;
16593;SDS011;8410;52.532;13.336;2024-03-06T00:59:56;30.80;;;22.70;;
16593;SDS011;8410;52.532;13.336;2024-03-06T01:02:23;31.73;;;24.60;;
16593;SDS011;8410;52.532;13.336;2024-03-06T01:04:51;29.20;;;24.00;;
16593;SDS011;8410;52.532;13.336;2024-03-06T01:07:19;31.53;;;24.83;;
16593;SDS011;8410;52.532;13.336;2024-03-06T01:09:46;25.43;;;22.40;;
16593;SDS011;8410;52.532;13.336;2024-03-06T01:12:15;29.33;;;23.60;;
16593;SDS011;8410;52.532;13.336;2024-03-06T01:14:44;30.73;;;23.43;;
16593;SDS011;8410;52.532;13.336;2024-03-06T01:17:12;31.53;;;24.60;;
16593;SDS011;8410;52.532;13.336;2024-03-06T01:19:39;31.20;;;24.33;;
16593;SDS011;8410;52.532;13.336;2024-03-06T01:22:09;29.77;;;24.73;;
16593;SDS011;8410;52.532;13.336;2024-03-06T01:24:37;30.27;;;24.57;;
16593;SDS011;8410;52.532;13.336;2024-03-06T01:27:04;29.97;;;24.63;;
16593;SDS011;8410;52.532;13.336;2024-03-06T01:29:33;26.77;;;22.37;;
16593;SDS011;8410;52.532;13.336;2024-03-06T01:32:01;32.60;;;23.13;;
16593;SDS011;8410;52.532;13.336;2024-03-06T01:34:29;29.93;;;25.10;;
16593;SDS011;8410;52.532;13.336;2024-03-06T01:36:56;32.80;;;25.97;;
16593;SDS011;8410;52.532;13.336;2024-03-06T01:39:24;29.57;;;24.50;;
16593;SDS011;8410;52.532;13.336;2024-03-06T01:41:51;33.27;;;25.07;;
16593;SDS011;8410;52.532;13.336;2024-03-06T01:44:19;30.27;;;24.50;;
16593;SDS011;8410;52.532;13.336;2024-03-06T01:46:48;31.10;;;24.00;;
16593;SDS011;8410;52.532;13.336;2024-03-06T01:49:16;29.67;;;23.73;;
16593;SDS011;8410;52.532;13.336;2024-03-06T01:51:57;28.80;;;23.40;;
16593;SDS011;8410;52.532;13.336;2024-03-06T01:54:26;32.50;;;24.43;;
16593;SDS011;8410;52.532;13.336;2024-03-06T01:56:54;32.90;;;25.57;;
16593;SDS011;8410;52.532;13.336;2024-03-06T01:59:22;31.87;;;24.23;;
16593;SDS011;8410;52.532;13.336;2024-03-06T02:02:03;29.63;;;24.33;;
16593;SDS011;8410;52.532;13.336;2024-03-06T02:04:31;31.70;;;23.90;;
16593;SDS011;8410;52.532;13.336;2024-03-06T02:06:59;27.70;;;21.00;;
16593;SDS011;8410;52.532;13.336;2024-03-06T02:09:27;34.77;;;24.37;;
16593;SDS011;8410;52.532;13.336;2024-03-06T02:11:55;30.90;;;23.87;;
16593;SDS011;8410;52.532;13.336;2024-03-06T02:14:22;36.90;;;25.37;;
16593;SDS011;8410;52.532;13.336;2024-03-06T02:16:50;27.73;;;22.87;;
16593;SDS011;8410;52.532;13.336;2024-03-06T02:19:19;31.77;;;22.90;;
16593;SDS011;8410;52.532;13.336;2024-03-06T02:21:48;27.30;;;21.67;;
16593;SDS011;8410;52.532;13.336;2024-03-06T02:24:15;31.97;;;23.53;;
16593;SDS011;8410;52.532;13.336;2024-03-06T02:26:43;28.93;;;23.63;;
16593;SDS011;8410;52.532;13.336;2024-03-06T02:29:10;30.17;;;22.37;;
16593;SDS011;8410;52.532;13.336;2024-03-06T02:31:38;31.70;;;24.70;;
16593;SDS011;8410;52.532;13.336;2024-03-06T02:34:06;30.23;;;23.63;;
16593;SDS011;8410;52.532;13.336;2024-03-06T02:36:33;32.63;;;24.50;;
16593;SDS011;8410;52.532;13.336;2024-03-06T02:39:03;29.57;;;24.10;;
16593;SDS011;8410;52.532;13.336;2024-03-06T02:41:35;30.00;;;24.00;;
16593;SDS011;8410;52.532;13.336;2024-03-06T02:44:03;31.10;;;23.97;;
16593;SDS011;8410;52.532;13.336;2024-03-06T02:46:31;32.67;;;23.90;;
16593;SDS011;8410;52.532;13.336;2024-03-06T02:48:59;30.47;;;24.37;;
16593;SDS011;8410;52.532;13.336;2024-03-06T02:51:26;31.80;;;23.53;;
16593;SDS011;8410;52.532;13.336;2024-03-06T02:53:53;32.90;;;24.20;;
16593;SDS011;8410;52.532;13.336;2024-03-06T02:56:22;29.27;;;22.70;;
16593;SDS011;8410;52.532;13.336;2024-03-06T02:58:50;32.93;;;24.10;;
16593;SDS011;8410;52.532;13.336;2024-03-06T03:01:17;30.27;;;23.73;;
16593;SDS011;8410;52.532;13.336;2024-03-06T03:03:45;31.93;;;23.63;;
16593;SDS011;8410;52.532;13.336;2024-03-06T03:06:13;27.70;;;23.53;;
16593;SDS011;8410;52.532;13.336;2024-03-06T03:08:41;33.17;;;24.83;;
16593;SDS011;8410;52.532;13.336;2024-03-06T03:11:08;32.07;;;22.77;;
16593;SDS011;8410;52.532;13.336;2024-03-06T03:13:37;30.70;;;24.80;;
16593;SDS011;8410;52.532;13.336;2024-03-06T03:16:05;32.90;;;23.60;;
16593;SDS011;8410;52.532;13.336;2024-03-06T03:18:33;35.40;;;23.83;;
16593;SDS011;8410;52.532;13.336;2024-03-06T03:21:01;30.70;;;23.90;;
16593;SDS011;8410;52.532;13.336;2024-03-06T03:23:28;29.90;;;23.73;;
16593;SDS011;8410;52.532;13.336;2024-03-06T03:25:56;31.57;;;23.33;;
16593;SDS011;8410;52.532;13.336;2024-03-06T03:28:23;32.20;;;23.63;;
16593;SDS011;8410;52.532;13.336;2024-03-06T03:30:52;28.00;;;22.60;;
16593;SDS011;8410;52.532;13.336;2024-03-06T03:33:19;34.07;;;23.93;;
16593;SDS011;8410;52.532;13.336;2024-03-06T03:35:47;29.60;;;22.23;;
16593;SDS011;8410;52.532;13.336;2024-03-06T03:38:14;31.40;;;23.83;;
16593;SDS011;8410;52.532;13.336;2024-03-06T03:40:42;31.50;;;23.20;;
16593;SDS011;8410;52.532;13.336;2024-03-06T03:43:10;26.60;;;22.20;;
16593;SDS011;8410;52.532;13.336;2024-03-06T03:45:38;28.13;;;20.97;;
16593;SDS011;8410;52.532;13.336;2024-03-06T03:48:07;30.27;;;21.97;;
16593;SDS011;8410;52.532;13.336;2024-03-06T03:50:34;30.33;;;22.30;;
16593;SDS011;8410;52.532;13.336;2024-03-06T03:53:02;28.67;;;22.57;;
16593;SDS011;8410;52.532;13.336;2024-03-06T03:55:30;24.37;;;20.60;;
16593;SDS011;8410;52.532;13.336;2024-03-06T03:57:58;25.47;;;20.80;;
16593;SDS011;8410;52.532;13.336;2024-03-06T04:00:26;26.63;;;21.93;;
16593;SDS011;8410;52.532;13.336;2024-03-06T04:02:53;29.83;;;22.47;;
16593;SDS011;8410;52.532;13.336;2024-03-06T04:05:22;26.07;;;20.27;;
16593;SDS011;8410;52.532;13.336;2024-03-06T04:07:50;26.40;;;21.97;;
16593;SDS011;8410;52.532;13.336;2024-03-06T04:10:18;26.97;;;19.40;;
16593;SDS011;8410;52.532;13.336;2024-03-06T04:12:45;23.73;;;19.43;;
16593;SDS011;8410;52.532;13.336;2024-03-06T04:15:13;25.70;;;21.13;;
16593;SDS011;8410;52.532;13.336;2024-03-06T04:17:40;27.50;;;20.83;;
16593;SDS011;8410;52.532;13.336;2024-03-06T04:20:08;25.33;;;21.17;;
16593;SDS011;8410;52.532;13.336;2024-03-06T04:22:39;25.70;;;20.43;;
16593;SDS011;8410;52.532;13.336;2024-03-06T04:25:07;21.30;;;18.47;;
16593;SDS011;8410;52.532;13.336;2024-03-06T04:27:36;27.80;;;20.80;;
16593;SDS011;8410;52.532;13.336;2024-03-06T04:30:03;28.07;;;20.80;;
16593;SDS011;8410;52.532;13.336;2024-03-06T04:32:32;27.87;;;21.00;;
16593;SDS011;8410;52.532;13.336;2024-03-06T04:34:59;25.77;;;22.17;;
16593;SDS011;8410;52.532;13.336;2024-03-06T04:37:27;28.33;;;20.20;;
16593;SDS011;8410;52.532;13.336;2024-03-06T04:39:57;27.90;;;21.77;;
16593;SDS011;8410;52.532;13.336;2024-03-06T04:42:24;26.50;;;20.17;;
16593;SDS011;8410;52.532;13.336;2024-03-06T04:44:52;27.20;;;22.17;;
16593;SDS011;8410;52.532;13.336;2024-03-06T04:47:19;27.03;;;21.30;;
16593;SDS011;8410;52.532;13.336;2024-03-06T04:49:47;27.83;;;21.97;;
16593;SDS011;8410;52.532;13.336;2024-03-06T04:52:16;28.83;;;23.33;;
16593;SDS011;8410;52.532;13.336;2024-03-06T04:54:43;28.63;;;21.60;;
16593;SDS011;8410;52.532;13.336;2024-03-06T04:57:12;33.60;;;22.47;;
16593;SDS011;8410;52.532;13.336;2024-03-06T04:59:40;35.00;;;23.87;;
16593;SDS011;8410;52.532;13.336;2024-03-06T05:02:07;29.30;;;20.67;;
16593;SDS011;8410;52.532;13.336;2024-03-06T05:04:35;26.80;;;20.77;;
16593;SDS011;8410;52.532;13.336;2024-03-06T05:07:20;30.27;;;21.73;;
16593;SDS011;8410;52.532;13.336;2024-03-06T05:10:05;26.33;;;20.90;;
16593;SDS011;8410;52.532;13.336;2024-03-06T05:12:54;24.43;;;20.03;;
16593;SDS011;8410;52.532;13.336;2024-03-06T05:15:38;26.13;;;20.73;;
16593;SDS011;8410;52.532;13.336;2024-03-06T05:18:23;27.73;;;21.80;;
16593;SDS011;8410;52.532;13.336;2024-03-06T05:21:08;27.50;;;21.30;;
16593;SDS011;8410;52.532;13.336;2024-03-06T05:23:54;31.17;;;22.93;;
16593;SDS011;8410;52.532;13.336;2024-03-06T05:26:38;26.70;;;21.43;;
16593;SDS011;8410;52.532;13.336;2024-03-06T05:29:25;27.67;;;21.63;;
16593;SDS011;8410;52.532;13.336;2024-03-06T05:32:10;28.07;;;21.50;;
16593;SDS011;8410;52.532;13.336;2024-03-06T05:34:55;26.27;;;21.13;;
16593;SDS011;8410;52.532;13.336;2024-03-06T05:37:41;25.60;;;21.00;;
16593;SDS011;8410;52.532;13.336;2024-03-06T05:40:26;30.27;;;23.53;;
16593;SDS011;8410;52.532;13.336;2024-03-06T05:43:11;29.37;;;22.30;;
16593;SDS011;8410;52.532;13.336;2024-03-06T05:45:58;24.67;;;21.33;;
16593;SDS011;8410;52.532;13.336;2024-03-06T05:48:44;24.67;;;21.40;;
16593;SDS011;8410;52.532;13.336;2024-03-06T05:51:29;26.50;;;19.03;;
16593;SDS011;8410;52.532;13.336;2024-03-06T05:54:14;28.13;;;22.00;;
16593;SDS011;8410;52.532;13.336;2024-03-06T05:56:59;24.97;;;20.40;;
16593;SDS011;8410;52.532;13.336;2024-03-06T05:59:44;25.30;;;21.53;;
16593;SDS011;8410;52.532;13.336;2024-03-06T06:02:13;23.57;;;19.93;;
16593;SDS011;8410;52.532;13.336;2024-03-06T06:04:42;27.27;;;19.60;;
16593;SDS011;8410;52.532;13.336;2024-03-06T06:07:25;29.83;;;24.13;;
16593;SDS011;8410;52.532;13.336;2024-03-06T06:09:52;24.40;;;19.47;;
16593;SDS011;8410;52.532;13.336;2024-03-06T06:12:20;27.80;;;22.87;;
16593;SDS011;8410;52.532;13.336;2024-03-06T06:14:47;30.50;;;21.73;;
16593;SDS011;8410;52.532;13.336;2024-03-06T06:17:16;29.50;;;23.13;;
16593;SDS011;8410;52.532;13.336;2024-03-06T06:19:46;26.37;;;20.93;;
16593;SDS011;8410;52.532;13.336;2024-03-06T06:22:13;30.67;;;23.07;;
16593;SDS011;8410;52.532;13.336;2024-03-06T06:24:41;33.27;;;24.30;;
16593;SDS011;8410;52.532;13.336;2024-03-06T06:27:12;28.00;;;23.57;;
16593;SDS011;8410;52.532;13.336;2024-03-06T06:29:40;23.87;;;20.07;;
16593;SDS011;8410;52.532;13.336;2024-03-06T06:32:07;29.57;;;24.00;;
16593;SDS011;8410;52.532;13.336;2024-03-06T06:34:36;28.70;;;21.80;;
16593;SDS011;8410;52.532;13.336;2024-03-06T06:37:04;28.93;;;23.10;;
16593;SDS011;8410;52.532;13.336;2024-03-06T06:39:32;29.87;;;26.67;;
16593;SDS011;8410;52.532;13.336;2024-03-06T06:42:00;29.83;;;23.30;;
16593;SDS011;8410;52.532;13.336;2024-03-06T06:44:29;27.90;;;23.17;;
16593;SDS011;8410;52.532;13.336;2024-03-06T06:46:57;29.03;;;23.30;;
16593;SDS011;8410;52.532;13.336;2024-03-06T06:49:24;30.93;;;24.00;;
16593;SDS011;8410;52.532;13.336;2024-03-06T06:51:53;27.90;;;22.70;;
16593;SDS011;8410;52.532;13.336;2024-03-06T06:54:21;30.80;;;24.40;;
16593;SDS011;8410;52.532;13.336;2024-03-06T06:56:48;25.20;;;22.50;;
16593;SDS011;8410;52.532;13.336;2024-03-06T06:59:16;30.83;;;24.90;;
16593;SDS011;8410;52.532;13.336;2024-03-06T07:01:49;29.30;;;22.93;;
16593;SDS011;8410;52.532;13.336;2024-03-06T07:04:17;31.83;;;23.80;;
16593;SDS011;8410;52.532;13.336;2024-03-06T07:06:46;26.77;;;21.43;;
16593;SDS011;8410;52.532;13.336;2024-03-06T07:09:15;29.93;;;24.00;;
16593;SDS011;8410;52.532;13.336;2024-03-06T07:11:43;23.03;;;18.47;;
16593;SDS011;8410;52.532;13.336;2024-03-06T07:14:11;26.17;;;20.77;;
16593;SDS011;8410;52.532;13.336;2024-03-06T07:16:41;27.73;;;20.07;;
16593;SDS011;8410;52.532;13.336;2024-03-06T07:19:09;22.37;;;19.80;;
16593;SDS011;8410;52.532;13.336;2024-03-06T07:21:37;25.23;;;22.40;;
16593;SDS011;8410;52.532;13.336;2024-03-06T07:24:04;24.33;;;21.77;;
16593;SDS011;8410;52.532;13.336;2024-03-06T07:26:34;23.60;;;20.37;;
16593;SDS011;8410;52.532;13.336;2024-03-06T07:29:02;29.13;;;21.77;;
16593;SDS011;8410;52.532;13.336;2024-03-06T07:31:30;26.07;;;20.10;;
16593;SDS011;8410;52.532;13.336;2024-03-06T07:33:58;26.30;;;22.67;;
16593;SDS011;8410;52.532;13.336;2024-03-06T07:36:25;21.33;;;18.07;;
16593;SDS011;8410;52.532;13.336;2024-03-06T07:38:53;23.10;;;20.70;;
16593;SDS011;8410;52.532;13.336;2024-03-06T07:41:21;26.63;;;21.67;;
16593;SDS011;8410;52.532;13.336;2024-03-06T07:43:49;25.30;;;21.03;;
16593;SDS011;8410;52.532;13.336;2024-03-06T07:46:17;23.60;;;21.07;;
16593;SDS011;8410;52.532;13.336;2024-03-06T07:48:44;24.50;;;19.37;;
16593;SDS011;8410;52.532;13.336;2024-03-06T07:51:12;22.60;;;19.37;;
16593;SDS011;8410;52.532;13.336;2024-03-06T07:53:39;18.97;;;16.00;;
16593;SDS011;8410;52.532;13.336;2024-03-06T07:56:09;18.50;;;15.83;;
16593;SDS011;8410;52.532;13.336;2024-03-06T07:58:38;21.07;;;16.57;;
16593;SDS011;8410;52.532;13.336;2024-03-06T08:01:07;18.40;;;15.77;;
16593;SDS011;8410;52.532;13.336;2024-03-06T08:03:35;16.00;;;14.37;;
16593;SDS011;8410;52.532;13.336;2024-03-06T08:06:02;16.23;;;14.50;;
16593;SDS011;8410;52.532;13.336;2024-03-06T08:08:30;17.40;;;13.33;;
16593;SDS011;8410;52.532;13.336;2024-03-06T08:10:58;16.20;;;14.27;;
16593;SDS011;8410;52.532;13.336;2024-03-06T08:13:25;15.17;;;13.57;;
16593;SDS011;8410;52.532;13.336;2024-03-06T08:15:53;18.37;;;16.47;;
16593;SDS011;8410;52.532;13.336;2024-03-06T08:18:22;17.30;;;15.07;;
16593;SDS011;8410;52.532;13.336;2024-03-06T08:20:50;15.40;;;13.10;;
16593;SDS011;8410;52.532;13.336;2024-03-06T08:23:19;16.77;;;14.87;;
16593;SDS011;8410;52.532;13.336;2024-03-06T08:25:47;16.73;;;15.03;;
16593;SDS011;8410;52.532;13.336;2024-03-06T08:28:14;16.53;;;12.93;;
16593;SDS011;8410;52.532;13.336;2024-03-06T08:30:42;15.70;;;13.67;;
16593;SDS011;8410;52.532;13.336;2024-03-06T08:33:10;15.33;;;13.80;;
16593;SDS011;8410;52.532;13.336;2024-03-06T08:35:40;21.43;;;14.87;;
16593;SDS011;8410;52.532;13.336;2024-03-06T08:38:08;20.67;;;13.60;;
16593;SDS011;8410;52.532;13.336;2024-03-06T08:40:35;17.50;;;15.70;;
16593;SDS011;8410;52.532;13.336;2024-03-06T08:43:05;17.00;;;12.57;;
16593;SDS011;8410;52.532;13.336;2024-03-06T08:45:34;14.77;;;12.63;;
16593;SDS011;8410;52.532;13.336;2024-03-06T08:48:02;15.73;;;13.57;;
16593;SDS011;8410;52.532;13.336;2024-03-06T08:50:30;15.53;;;13.10;;
16593;SDS011;8410;52.532;13.336;2024-03-06T08:52:59;18.73;;;14.30;;
16593;SDS011;8410;52.532;13.336;2024-03-06T08:55:28;17.13;;;13.87;;
16593;SDS011;8410;52.532;13.336;2024-03-06T08:57:56;19.57;;;14.77;;
16593;SDS011;8410;52.532;13.336;2024-03-06T09:00:24;15.63;;;13.40;;
16593;SDS011;8410;52.532;13.336;2024-03-06T09:02:53;15.17;;;13.30;;
16593;SDS011;8410;52.532;13.336;2024-03-06T09:05:20;14.77;;;13.03;;
16593;SDS011;8410;52.532;13.336;2024-03-06T09:07:48;15.43;;;12.20;;
16593;SDS011;8410;52.532;13.336;2024-03-06T09:10:17;13.73;;;12.00;;
16593;SDS011;8410;52.532;13.336;2024-03-06T09:12:45;13.53;;;12.10;;
16593;SDS011;8410;52.532;13.336;2024-03-06T09:15:13;13.00;;;11.60;;
16593;SDS011;8410;52.532;13.336;2024-03-06T09:17:42;12.03;;;10.73;;
16593;SDS011;8410;52.532;13.336;2024-03-06T09:20:11;12.73;;;11.40;;
16593;SDS011;8410;52.532;13.336;2024-03-06T09:22:40;12.67;;;11.10;;
16593;SDS011;8410;52.532;13.336;2024-03-06T09:25:09;12.57;;;10.70;;
16593;SDS011;8410;52.532;13.336;2024-03-06T09:27:40;12.43;;;11.23;;
16593;SDS011;8410;52.532;13.336;2024-03-06T09:30:08;12.23;;;10.77;;
16593;SDS011;8410;52.532;13.336;2024-03-06T09:32:37;12.93;;;11.70;;
16593;SDS011;8410;52.532;13.336;2024-03-06T09:35:05;11.63;;;10.40;;
16593;SDS011;8410;52.532;13.336;2024-03-06T09:37:34;11.70;;;10.60;;
16593;SDS011;8410;52.532;13.336;2024-03-06T09:40:01;10.80;;;9.70;;
16593;SDS011;8410;52.532;13.336;2024-03-06T09:42:30;12.77;;;11.47;;
16593;SDS011;8410;52.532;13.336;2024-03-06T09:44:59;10.57;;;9.13;;
16593;SDS011;8410;52.532;13.336;2024-03-06T09:47:27;9.57;;;8.67;;
16593;SDS011;8410;52.532;13.336;2024-03-06T09:49:59;9.23;;;8.33;;
16593;SDS011;8410;52.532;13.336;2024-03-06T09:52:29;9.63;;;8.73;;
16593;SDS011;8410;52.532;13.336;2024-03-06T09:54:57;17.13;;;11.83;;
16593;SDS011;8410;52.532;13.336;2024-03-06T09:57:26;12.37;;;11.07;;
16593;SDS011;8410;52.532;13.336;2024-03-06T09:59:54;11.60;;;10.50;;
16593;SDS011;8410;52.532;13.336;2024-03-06T10:02:28;13.20;;;11.80;;
16593;SDS011;8410;52.532;13.336;2024-03-06T10:05:02;15.40;;;10.80;;
16593;SDS011;8410;52.532;13.336;2024-03-06T10:07:31;11.57;;;10.47;;
16593;SDS011;8410;52.532;13.336;2024-03-06T10:09:59;17.03;;;14.23;;
16593;SDS011;8410;52.532;13.336;2024-03-06T10:12:27;13.00;;;11.60;;
16593;SDS011;8410;52.532;13.336;2024-03-06T10:14:56;13.17;;;11.83;;
16593;SDS011;8410;52.532;13.336;2024-03-06T10:17:23;20.30;;;14.77;;
16593;SDS011;8410;52.532;13.336;2024-03-06T10:19:54;12.17;;;9.77;;
16593;SDS011;8410;52.532;13.336;2024-03-06T10:22:24;11.40;;;10.00;;
16593;SDS011;8410;52.532;13.336;2024-03-06T10:24:54;12.37;;;10.73;;
16593;SDS011;8410;52.532;13.336;2024-03-06T10:27:23;11.00;;;9.87;;
16593;SDS011;8410;52.532;13.336;2024-03-06T10:30:00;14.20;;;12.50;;
16593;SDS011;8410;52.532;13.336;2024-03-06T10:32:32;13.63;;;11.50;;
16593;SDS011;8410;52.532;13.336;2024-03-06T10:35:00;11.33;;;9.90;;
16593;SDS011;8410;52.532;13.336;2024-03-06T10:37:27;10.43;;;9.33;;
16593;SDS011;8410;52.532;13.336;2024-03-06T10:39:56;10.10;;;9.10;;
16593;SDS011;8410;52.532;13.336;2024-03-06T10:42:32;9.87;;;8.87;;
16593;SDS011;8410;52.532;13.336;2024-03-06T10:45:00;11.57;;;9.70;;
16593;SDS011;8410;52.532;13.336;2024-03-06T10:47:29;11.80;;;8.27;;
16593;SDS011;8410;52.532;13.336;2024-03-06T10:50:00;9.80;;;8.80;;
16593;SDS011;8410;52.532;13.336;2024-03-06T10:52:31;13.33;;;7.53;;
16593;SDS011;8410;52.532;13.336;2024-03-06T10:55:01;8.40;;;7.50;;
16593;SDS011;8410;52.532;13.336;2024-03-06T10:57:29;10.37;;;9.27;;
16593;SDS011;8410;52.532;13.336;2024-03-06T10:59:57;12.40;;;9.90;;
16593;SDS011;8410;52.532;13.336;2024-03-06T11:02:30;13.47;;;10.17;;
16593;SDS011;8410;52.532;13.336;2024-03-06T11:05:00;12.27;;;9.53;;
16593;SDS011;8410;52.532;13.336;2024-03-06T11:07:31;9.47;;;8.57;;
16593;SDS011;8410;52.532;13.336;2024-03-06T11:09:59;9.53;;;8.60;;
16593;SDS011;8410;52.532;13.336;2024-03-06T11:12:34;11.13;;;9.17;;
16593;SDS011;8410;52.532;13.336;2024-03-06T11:15:13;10.13;;;8.10;;
16593;SDS011;8410;52.532;13.336;2024-03-06T11:17:42;9.60;;;7.50;;
16593;SDS011;8410;52.532;13.336;2024-03-06T11:20:14;8.53;;;6.57;;
16593;SDS011;8410;52.532;13.336;2024-03-06T11:23:03;8.87;;;6.83;;
16593;SDS011;8410;52.532;13.336;2024-03-06T11:28:28;10.87;;;9.77;;
16593;SDS011;8410;52.532;13.336;2024-03-06T11:30:57;14.70;;;13.30;;
16593;SDS011;8410;52.532;13.336;2024-03-06T11:33:34;15.20;;;13.37;;
16593;SDS011;8410;52.532;13.336;2024-03-06T11:36:18;11.90;;;10.77;;
16593;SDS011;8410;52.532;13.336;2024-03-06T11:38:50;12.50;;;11.30;;
16593;SDS011;8410;52.532;13.336;2024-03-06T11:41:20;12.73;;;11.43;;
16593;SDS011;8410;52.532;13.336;2024-03-06T11:43:51;14.07;;;12.67;;
16593;SDS011;8410;52.532;13.336;2024-03-06T11:46:20;16.57;;;12.93;;
16593;SDS011;8410;52.532;13.336;2024-03-06T11:48:52;15.57;;;14.07;;
16593;SDS011;8410;52.532;13.336;2024-03-06T11:51:23;15.17;;;13.60;;
16593;SDS011;8410;52.532;13.336;2024-03-06T11:53:50;17.73;;;15.90;;
16593;SDS011;8410;52.532;13.336;2024-03-06T11:56:18;16.97;;;15.23;;
16593;SDS011;8410;52.532;13.336;2024-03-06T11:58:47;14.73;;;13.07;;
16593;SDS011;8410;52.532;13.336;2024-03-06T12:01:15;17.37;;;15.63;;
16593;SDS011;8410;52.532;13.336;2024-03-06T12:03:45;15.63;;;14.13;;
16593;SDS011;8410;52.532;13.336;2024-03-06T12:06:14;19.30;;;17.37;;
16593;SDS011;8410;52.532;13.336;2024-03-06T12:08:44;19.07;;;17.27;;
16593;SDS011;8410;52.532;13.336;2024-03-06T12:11:12;16.77;;;15.07;;
16593;SDS011;8410;52.532;13.336;2024-03-06T12:13:41;16.90;;;14.90;;
16593;SDS011;8410;52.532;13.336;2024-03-06T12:16:09;14.30;;;12.87;;
16593;SDS011;8410;52.532;13.336;2024-03-06T12:18:38;11.03;;;9.97;;
16593;SDS011;8410;52.532;13.336;2024-03-06T12:21:05;12.97;;;11.67;;
16593;SDS011;8410;52.532;13.336;2024-03-06T12:23:33;15.37;;;13.77;;
16593;SDS011;8410;52.532;13.336;2024-03-06T12:26:05;14.57;;;12.33;;
16593;SDS011;8410;52.532;13.336;2024-03-06T12:28:35;13.73;;;10.20;;
16593;SDS011;8410;52.532;13.336;2024-03-06T12:31:03;12.40;;;10.90;;
16593;SDS011;8410;52.532;13.336;2024-03-06T12:33:31;12.77;;;10.53;;
16593;SDS011;8410;52.532;13.336;2024-03-06T12:36:01;12.00;;;10.77;;
16593;SDS011;8410;52.532;13.336;2024-03-06T12:38:30;12.30;;;11.20;;
16593;SDS011;8410;52.532;13.336;2024-03-06T12:40:57;11.03;;;9.93;;
16593;SDS011;8410;52.532;13.336;2024-03-06T12:43:27;11.20;;;9.60;;
16593;SDS011;8410;52.532;13.336;2024-03-06T12:45:55;11.63;;;9.77;;
16593;SDS011;8410;52.532;13.336;2024-03-06T12:48:25;11.07;;;10.07;;
16593;SDS011;8410;52.532;13.336;2024-03-06T12:50:54;12.10;;;10.93;;
16593;SDS011;8410;52.532;13.336;2024-03-06T12:53:22;13.83;;;11.13;;
16593;SDS011;8410;52.532;13.336;2024-03-06T12:55:50;11.80;;;10.60;;
16593;SDS011;8410;52.532;13.336;2024-03-06T12:58:17;13.53;;;11.67;;
16593;SDS011;8410;52.532;13.336;2024-03-06T13:00:46;13.40;;;11.47;;
16593;SDS011;8410;52.532;13.336;2024-03-06T13:03:14;12.60;;;10.70;;
16593;SDS011;8410;52.532;13.336;2024-03-06T13:05:41;11.77;;;10.67;;
16593;SDS011;8410;52.532;13.336;2024-03-06T13:08:09;12.40;;;10.17;;
16593;SDS011;8410;52.532;13.336;2024-03-06T13:10:40;12.40;;;11.10;;
16593;SDS011;8410;52.532;13.336;2024-03-06T13:13:07;12.73;;;10.10;;
16593;SDS011;8410;52.532;13.336;2024-03-06T13:15:35;14.47;;;10.77;;
16593;SDS011;8410;52.532;13.336;2024-03-06T13:18:05;15.67;;;13.27;;
16593;SDS011;8410;52.532;13.336;2024-03-06T13:20:34;13.80;;;12.33;;
16593;SDS011;8410;52.532;13.336;2024-03-06T13:23:01;15.87;;;13.90;;
16593;SDS011;8410;52.532;13.336;2024-03-06T13:25:29;17.27;;;14.03;;
16593;SDS011;8410;52.532;13.336;2024-03-06T13:27:57;21.87;;;16.50;;
16593;SDS011;8410;52.532;13.336;2024-03-06T13:30:26;21.77;;;17.00;;
16593;SDS011;8410;52.532;13.336;2024-03-06T13:32:53;18.57;;;16.60;;
16593;SDS011;8410;52.532;13.336;2024-03-06T13:35:23;22.60;;;14.57;;
16593;SDS011;8410;52.532;13.336;2024-03-06T13:37:50;20.20;;;15.67;;
16593;SDS011;8410;52.532;13.336;2024-03-06T13:40:18;23.47;;;14.87;;
16593;SDS011;8410;52.532;13.336;2024-03-06T13:42:45;20.40;;;15.97;;
16593;SDS011;8410;52.532;13.336;2024-03-06T13:45:13;25.13;;;16.53;;
16593;SDS011;8410;52.532;13.336;2024-03-06T13:47:41;18.63;;;13.50;;
16593;SDS011;8410;52.532;13.336;2024-03-06T13:50:10;24.07;;;14.27;;
16593;SDS011;8410;52.532;13.336;2024-03-06T13:52:40;19.90;;;13.17;;
16593;SDS011;8410;52.532;13.336;2024-03-06T13:55:08;22.13;;;14.97;;
16593;SDS011;8410;52.532;13.336;2024-03-06T13:57:37;20.67;;;14.90;;
16593;SDS011;8410;52.532;13.336;2024-03-06T14:00:05;25.70;;;17.97;;
16593;SDS011;8410;52.532;13.336;2024-03-06T14:02:38;25.23;;;19.37;;
16593;SDS011;8410;52.532;13.336;2024-03-06T14:05:06;19.40;;;13.90;;
16593;SDS011;8410;52.532;13.336;2024-03-06T14:07:34;13.67;;;12.17;;
16593;SDS011;8410;52.532;13.336;2024-03-06T14:10:03;13.27;;;11.33;;
16593;SDS011;8410;52.532;13.336;2024-03-06T14:12:32;18.43;;;12.63;;
16593;SDS011;8410;52.532;13.336;2024-03-06T14:14:59;15.83;;;13.20;;
16593;SDS011;8410;52.532;13.336;2024-03-06T14:17:26;15.83;;;12.73;;
16593;SDS011;8410;52.532;13.336;2024-03-06T14:19:54;15.70;;;13.97;;
16593;SDS011;8410;52.532;13.336;2024-03-06T14:22:21;16.03;;;12.63;;
16593;SDS011;8410;52.532;13.336;2024-03-06T14:24:49;19.63;;;14.23;;
16593;SDS011;8410;52.532;13.336;2024-03-06T14:27:18;19.07;;;14.30;;
16593;SDS011;8410;52.532;13.336;2024-03-06T14:29:45;19.97;;;14.43;;
16593;SDS011;8410;52.532;13.336;2024-03-06T14:32:13;25.30;;;16.20;;
16593;SDS011;8410;52.532;13.336;2024-03-06T14:34:41;20.40;;;15.13;;
16593;SDS011;8410;52.532;13.336;2024-03-06T14:37:09;23.57;;;15.77;;
16593;SDS011;8410;52.532;13.336;2024-03-06T14:39:37;26.80;;;17.83;;